FW9568 Weather Reports


Display with metric or nautical units.
time (UTC)temp
F
wind
direction
speed
MPH
gust
MPH
rain 1hr
in
rain 24hr
in
rain mn
in
humidity
%
barometer
mb
20240521220903 63 87 6.0 10.0 0.00 0.00 0.00 44 1011.1
20240521220004 62 125 6.0 9.0 0.00 0.00 0.00 43 1011.4
20240521215403 62 104 5.0 8.0 0.00 0.00 0.00 45 1011.4
20240521214503 61 81 3.0 6.0 0.00 0.00 0.00 49 1011.6
20240521213603 59 47 3.0 5.0 0.00 0.00 0.00 52 1011.7
20240521212703 57 281 3.0 3.0 0.00 0.00 0.00 55 1011.9
20240521212019 56 286 7.0 11.0 0.00 0.00 0.00 55 1012.1
20240521210903 56 281 5.0 11.0 0.00 0.00 0.00 55 1012.4
20240521210217 55 293 7.0 12.0 0.00 0.00 0.00 56 1012.7
20240521205403 55 271 7.0 12.0 0.00 0.00 0.00 58 1012.9
20240521204503 56 263 7.0 11.0 0.00 0.00 0.00 52 1013.1
20240521203816 56 259 6.0 11.0 0.00 0.00 0.00 51 1012.8
20240521202703 57 202 6.0 11.0 0.00 0.00 0.00 48 1012.3
20240521201803 59 214 8.0 15.0 0.00 0.00 0.00 46 1011.4
20240521200904 63 181 8.0 18.0 0.00 0.00 0.00 34 1011.1
20240521200217 64 234 3.0 9.0 0.00 0.00 0.00 29 1009.7
20240521195616 65 234 3.0 5.0 0.00 0.00 0.00 30 1009.5
20240521194503 65 207 5.0 12.0 0.00 0.00 0.00 30 1009.5
20240521193603 65 221 8.0 13.0 0.00 0.00 0.00 28 1009.6
20240521192703 67 239 3.0 4.0 0.00 0.00 0.00 26 1009.2
20240521191803 68 234 5.0 9.0 0.00 0.00 0.00 28 1009.1
20240521190903 68 114 6.0 14.0 0.00 0.00 0.00 32 1008.9
20240521190216 66 157 5.0 10.0 0.00 0.00 0.00 37 1009.3
20240521185403 64 96 6.0 11.0 0.00 0.00 0.00 41 1009.2
20240521184503 63 97 5.0 9.0 0.00 0.00 0.00 41 1009.8
20240521183603 64 99 5.0 9.0 0.00 0.00 0.00 41 1010.1
20240521182918 63 91 4.0 7.0 0.00 0.00 0.00 42 1010.3
20240521181803 62 99 5.0 8.0 0.00 0.00 0.00 43 1010.3
20240521180903 62 102 5.0 9.0 0.00 0.00 0.00 43 1010.5
20240521180003 62 92 4.0 7.0 0.00 0.00 0.00 42 1010.5
20240521175403 62 88 4.0 6.0 0.00 0.00 0.00 43 1010.8
20240521174503 63 88 4.0 7.0 0.00 0.00 0.00 43 1010.8
20240521173819 63 104 4.0 6.0 0.00 0.00 0.00 44 1010.9
20240521172703 62 129 5.0 8.0 0.00 0.00 0.00 45 1011.2
20240521171803 61 109 5.0 8.0 0.00 0.00 0.00 46 1011.2
20240521170903 61 113 4.0 7.0 0.00 0.00 0.00 46 1011.4
20240521170004 61 115 4.0 7.0 0.00 0.00 0.00 48 1011.5
20240521165619 60 129 3.0 6.0 0.00 0.00 0.00 48 1011.5
20240521164503 61 106 2.0 4.0 0.00 0.00 0.00 47 1011.8
20240521163818 62 126 3.0 6.0 0.00 0.00 0.00 45 1011.7
20240521162703 62 123 3.0 6.0 0.00 0.00 0.00 48 1011.8
20240521162017 61 112 4.0 7.0 0.00 0.00 0.00 48 1011.7
20240521160903 60 146 4.0 7.0 0.00 0.00 0.00 49 1012.0
20240521160219 59 149 3.0 5.0 0.00 0.00 0.00 53 1011.7
20240521155403 56 156 2.0 4.0 0.00 0.00 0.00 55 1011.8
20240521154719 55 150 2.0 3.0 0.00 0.00 0.00 57 1011.9
20240521153603 56 245 1.0 1.0 0.00 0.00 0.00 57 1012.0
20240521152703 57 318 1.0 2.0 0.00 0.00 0.00 55 1011.9
20240521151803 57 274 1.0 3.0 0.00 0.00 0.00 51 1011.8
20240521150903 57 278 1.0 2.0 0.00 0.00 0.00 53 1011.6
20240521150003 57 291 2.0 4.0 0.00 0.00 0.00 52 1011.6
20240521145403 57 285 2.0 4.0 0.00 0.00 0.00 52 1011.4
20240521144503 56 294 3.0 7.0 0.00 0.00 0.00 53 1011.4
20240521143817 55 280 5.0 8.0 0.00 0.00 0.00 56 1011.3
20240521142703 54 302 4.0 8.0 0.00 0.00 0.00 56 1011.0
20240521141803 53 293 2.0 7.0 0.00 0.00 0.00 60 1011.1
20240521140903 53 303 4.0 10.0 0.00 0.00 0.00 61 1011.1
20240521140003 52 282 3.0 6.0 0.00 0.00 0.00 64 1011.2
20240521135403 51 300 3.0 5.0 0.00 0.00 0.00 66 1011.1
20240521134503 50 283 5.0 8.0 0.00 0.00 0.00 65 1011.0
20240521133603 50 305 6.0 9.0 0.00 0.00 0.00 66 1010.9
20240521132703 49 291 5.0 11.0 0.00 0.00 0.00 68 1010.7
20240521131803 48 283 6.0 11.0 0.00 0.00 0.00 69 1010.7
20240521130904 48 296 6.0 12.0 0.00 0.00 0.00 70 1010.9
20240521130003 47 287 8.0 12.0 0.00 0.00 0.00 71 1010.6
20240521125403 47 282 8.0 12.0 0.00 0.00 0.00 72 1010.7
20240521124503 46 294 7.0 12.0 0.00 0.00 0.00 72 1010.9
20240521123603 46 291 7.0 11.0 0.00 0.00 0.00 74 1010.8
20240521122703 45 285 8.0 13.0 0.00 0.00 0.00 75 1010.8
20240521121803 44 295 8.0 15.0 0.00 0.00 0.00 76 1011.0
20240521120903 44 293 9.0 15.0 0.00 0.00 0.00 77 1010.8
20240521120003 44 297 8.0 13.0 0.00 0.00 0.00 78 1010.5
20240521115403 44 301 7.0 13.0 0.00 0.00 0.00 79 1010.3
20240521114503 44 298 8.0 13.0 0.00 0.00 0.00 79 1010.3
20240521113603 43 283 10.0 15.0 0.00 0.00 0.00 79 1010.2
20240521112703 44 285 7.0 12.0 0.00 0.00 0.00 79 1010.2
20240521111803 44 294 7.0 11.0 0.00 0.00 0.00 79 1010.2
20240521111118 44 307 8.0 16.0 0.00 0.00 0.00 78 1010.1
20240521110003 44 304 9.0 16.0 0.00 0.00 0.00 78 1010.3
20240521105403 44 303 9.0 13.0 0.00 0.00 0.00 78 1010.2
20240521104503 44 314 8.0 13.0 0.00 0.00 0.00 78 1009.8
20240521103603 44 297 8.0 12.0 0.00 0.00 0.00 78 1010.0
20240521102703 44 297 9.0 14.0 0.00 0.00 0.00 77 1009.9
20240521101803 44 297 9.0 17.0 0.00 0.00 0.00 76 1009.9
20240521100903 44 288 7.0 14.0 0.00 0.00 0.00 76 1009.9
20240521100003 44 294 8.0 14.0 0.00 0.00 0.00 75 1009.8
20240521095404 44 289 7.0 11.0 0.00 0.00 0.00 75 1009.7
20240521094503 44 296 8.0 13.0 0.00 0.00 0.00 75 1009.4
20240521093603 45 292 9.0 16.0 0.00 0.00 0.00 75 1009.1
20240521092703 45 355 11.0 16.0 0.00 0.00 0.00 75 1008.8
20240521091803 45 300 10.0 17.0 0.00 0.00 0.00 76 1008.8
20240521090903 45 289 11.0 17.0 0.00 0.00 0.00 76 1008.6
20240521090217 46 281 11.0 16.0 0.00 0.00 0.00 76 1008.4
20240521085403 46 287 10.0 16.0 0.00 0.00 0.00 76 1008.2
20240521084503 46 303 7.0 12.0 0.00 0.00 0.00 76 1008.5
20240521083603 46 280 9.0 14.0 0.00 0.00 0.00 76 1008.4
20240521082703 46 298 11.0 17.0 0.00 0.00 0.00 76 1008.2
20240521081803 46 294 11.0 22.0 0.00 0.00 0.00 75 1008.4
20240521081117 47 294 12.0 22.0 0.00 0.00 0.00 75 1008.5
20240521080003 47 314 9.0 14.0 0.00 0.00 0.00 77 1008.4
20240521075403 47 295 8.0 13.0 0.00 0.00 0.00 78 1008.0
20240521074503 47 298 10.0 15.0 0.00 0.00 0.00 78 1008.4
20240521073819 48 294 11.0 16.0 0.00 0.00 0.00 78 1008.3
20240521072703 48 292 7.0 11.0 0.00 0.00 0.00 79 1008.4
20240521071803 48 291 9.0 16.0 0.00 0.00 0.00 80 1008.6
20240521070903 48 291 12.0 18.0 0.00 0.00 0.00 80 1008.4
20240521070003 48 294 12.0 17.0 0.00 0.00 0.00 80 1008.6
20240521065403 48 292 12.0 20.0 0.00 0.00 0.00 80 1008.6
20240521064503 48 307 9.0 20.0 0.00 0.00 0.00 80 1008.3
20240521063603 48 299 12.0 21.0 0.00 0.00 0.00 80 1008.2
20240521062703 49 319 8.0 13.0 0.00 0.00 0.00 79 1008.3
20240521061803 49 284 8.0 14.0 0.00 0.00 0.00 79 1008.6
20240521060903 50 283 8.0 18.0 0.00 0.00 0.00 79 1008.6
20240521060005 50 297 10.0 18.0 0.00 0.00 0.00 78 1008.7
20240521055403 50 283 10.0 18.0 0.00 0.00 0.00 77 1008.2
20240521054503 51 281 10.0 18.0 0.00 0.00 0.00 76 1008.5
20240521053818 52 318 7.0 13.0 0.00 0.00 0.00 74 1008.5
20240521052703 53 294 8.0 13.0 0.00 0.00 0.00 72 1008.5
20240521051803 54 289 9.0 17.0 0.00 0.00 0.00 70 1008.0
20240521050903 57 292 12.0 17.0 0.00 0.00 0.00 66 1008.6
20240521050219 59 300 11.0 17.0 0.00 0.00 0.00 62 1008.5
20240521045403 60 297 10.0 16.0 0.00 0.00 0.00 59 1008.4
20240521044718 60 295 9.0 14.0 0.00 0.00 0.00 59 1008.8
20240521043818 61 301 8.0 14.0 0.00 0.00 0.00 58 1008.7
20240521042917 62 289 9.0 14.0 0.00 0.00 0.00 57 1008.9
20240521041803 64 294 6.0 10.0 0.00 0.00 0.00 54 1008.4
20240521040903 65 0 0.0 4.0 0.00 0.00 0.00 31 1008.0
20240521040003 65 0 0.0 0.0 0.00 0.00 0.00 28 1007.7
20240521035403 65 325 0.0 0.0 0.00 0.00 0.00 27 1007.6
20240521034503 66 308 1.0 5.0 0.00 0.00 0.00 32 1007.5
20240521033603 66 295 3.0 5.0 0.00 0.00 0.00 40 1007.5
20240521032916 66 327 1.0 4.0 0.00 0.00 0.00 42 1007.4
20240521031803 66 0 0.0 0.0 0.00 0.00 0.00 43 1007.2
20240521030903 66 47 0.0 0.0 0.00 0.00 0.00 49 1007.3
20240521030219 66 26 1.0 4.0 0.00 0.00 0.00 41 1007.2
20240521025403 67 315 1.0 4.0 0.00 0.00 0.00 51 1007.4
20240521024504 67 303 2.0 4.0 0.00 0.00 0.00 55 1007.2
20240521023603 67 297 3.0 4.0 0.00 0.00 0.00 54 1007.2
20240521022703 67 297 2.0 4.0 0.00 0.00 0.00 60 1007.1
20240521022020 67 295 4.0 8.0 0.00 0.00 0.00 60 1007.1
20240521021119 67 281 4.0 8.0 0.00 0.00 0.00 59 1007.3
20240521020003 68 292 2.0 4.0 0.00 0.00 0.00 56 1007.3
20240521015403 69 303 2.0 3.0 0.00 0.00 0.00 55 1007.2
20240521014503 69 267 1.0 3.0 0.00 0.00 0.00 54 1007.1
20240521013603 69 79 1.0 3.0 0.00 0.00 0.00 52 1007.3
20240521012703 69 69 2.0 3.0 0.00 0.00 0.00 51 1006.8
20240521012019 70 149 1.0 3.0 0.00 0.00 0.00 51 1007.0
20240521011118 70 103 1.0 2.0 0.00 0.00 0.00 51 1007.3
20240521010003 70 107 4.0 7.0 0.00 0.00 0.00 50 1007.1
20240521005403 70 92 4.0 7.0 0.00 0.00 0.00 49 1007.1
20240521004503 71 99 4.0 9.0 0.00 0.00 0.00 48 1007.1
20240521003603 72 98 5.0 9.0 0.00 0.00 0.00 45 1006.9
20240521002703 72 108 3.0 5.0 0.00 0.00 0.00 44 1006.9
20240521001803 72 117 3.0 7.0 0.00 0.00 0.00 42 1006.7
20240521000903 73 150 1.0 1.0 0.00 0.00 0.00 42 1006.9
20240521000003 72 202 2.0 3.0 0.00 0.00 0.00 42 1007.0
20240520235617 73 223 2.0 4.0 0.00 0.00 0.00 41 1007.1
20240520234716 73 179 2.0 4.0 0.00 0.00 0.00 41 1007.3
20240520233604 74 148 2.0 5.0 0.00 0.00 0.00 40 1007.3
20240520232919 74 160 1.0 2.0 0.00 0.00 0.00 40 1007.4
20240520231803 74 161 3.0 5.0 0.00 0.00 0.00 38 1007.5
20240520230903 74 158 2.0 4.0 0.00 0.00 0.00 40 1007.6
20240520230217 75 179 3.0 6.0 0.00 0.00 0.00 40 1007.7
20240520225403 74 147 3.0 6.0 0.00 0.00 0.00 40 1007.7
20240520224503 74 122 2.0 5.0 0.00 0.00 0.00 40 1007.9
20240520223603 74 97 5.0 9.0 0.00 0.00 0.00 39 1008.2
20240520222703 74 109 4.0 7.0 0.00 0.00 0.00 39 1008.2
20240520221803 75 106 5.0 8.0 0.00 0.00 0.00 38 1008.2